createdAt,value
2018-12-24T00:01:45.741Z,22.10
2018-12-24T00:04:20.047Z,19.23
2018-12-24T00:06:51.586Z,18.77
2018-12-24T00:09:23.056Z,19.63
2018-12-24T00:11:54.198Z,21.70
2018-12-24T00:14:28.401Z,19.43
2018-12-24T00:17:02.296Z,16.73
2018-12-24T00:19:35.353Z,18.37
2018-12-24T00:22:08.291Z,18.97
2018-12-24T00:24:39.735Z,18.33
2018-12-24T00:27:11.099Z,20.60
2018-12-24T00:29:44.516Z,20.73
2018-12-24T00:32:15.911Z,31.03
2018-12-24T00:34:47.906Z,18.37
2018-12-24T00:37:19.596Z,18.30
2018-12-24T00:39:51.056Z,19.57
2018-12-24T00:42:22.081Z,19.70
2018-12-24T00:44:53.532Z,18.87
2018-12-24T00:47:27.891Z,21.27
2018-12-24T00:49:59.716Z,24.60
2018-12-24T00:52:30.942Z,15.17
2018-12-24T00:55:02.071Z,18.57
2018-12-24T00:57:36.152Z,18.67
2018-12-24T01:00:12.321Z,18.83
2018-12-24T01:02:43.757Z,19.47
2018-12-24T01:05:14.881Z,16.90
2018-12-24T01:07:47.416Z,19.97
2018-12-24T01:10:18.622Z,20.83
2018-12-24T01:12:50.097Z,17.70
2018-12-24T01:15:21.301Z,17.63
2018-12-24T01:17:54.396Z,20.80
2018-12-24T01:20:25.767Z,19.83
2018-12-24T01:22:57.326Z,17.33
2018-12-24T01:25:29.972Z,20.03
2018-12-24T01:28:01.016Z,18.50
2018-12-24T01:30:31.962Z,19.40
2018-12-24T01:33:02.978Z,16.67
2018-12-24T01:35:34.101Z,17.23
2018-12-24T01:38:08.296Z,20.70
2018-12-24T01:40:39.796Z,20.10
2018-12-24T01:43:10.876Z,18.30
2018-12-24T01:45:41.776Z,20.33
2018-12-24T01:48:13.178Z,17.67
2018-12-24T01:50:44.286Z,20.23
2018-12-24T01:53:16.551Z,13.93
2018-12-24T01:55:47.635Z,17.03
2018-12-24T01:58:18.901Z,16.90
2018-12-24T02:00:50.107Z,14.67
2018-12-24T02:03:21.846Z,15.57
2018-12-24T02:05:53.721Z,16.50
2018-12-24T02:08:27.981Z,14.27
2018-12-24T02:11:03.580Z,12.10
2018-12-24T02:13:37.666Z,15.23
2018-12-24T02:16:14.359Z,16.40
2018-12-24T02:18:48.006Z,17.30
2018-12-24T02:21:20.304Z,13.60
2018-12-24T02:23:51.347Z,13.53
2018-12-24T02:26:23.856Z,15.53
2018-12-24T02:28:55.856Z,13.53
2018-12-24T02:31:26.965Z,12.47
2018-12-24T02:33:58.166Z,14.57
2018-12-24T02:36:29.321Z,13.00
2018-12-24T02:39:00.345Z,11.80
2018-12-24T02:41:33.798Z,12.40
2018-12-24T02:44:04.882Z,13.27
2018-12-24T02:46:36.236Z,12.63
2018-12-24T02:49:07.454Z,11.30
2018-12-24T02:51:39.262Z,13.67
2018-12-24T02:54:12.601Z,12.07
2018-12-24T02:56:53.402Z,11.87
2018-12-24T02:59:34.450Z,13.27
2018-12-24T03:02:11.043Z,17.63
2018-12-24T03:04:54.765Z,15.20
2018-12-24T03:07:26.771Z,16.90
2018-12-24T03:09:58.306Z,16.17
2018-12-24T03:12:33.247Z,16.00
2018-12-24T03:15:15.377Z,7.60
2018-12-24T03:17:57.991Z,13.90
2018-12-24T03:20:30.796Z,14.17
2018-12-24T03:23:09.006Z,18.83
2018-12-24T03:25:42.904Z,14.87
2018-12-24T03:28:19.231Z,15.67
2018-12-24T03:30:56.694Z,19.23
2018-12-24T03:33:27.948Z,14.43
2018-12-24T03:35:59.168Z,21.30
2018-12-24T03:38:32.351Z,13.27
2018-12-24T03:41:04.691Z,10.30
2018-12-24T03:43:37.148Z,14.73
2018-12-24T03:46:10.625Z,17.87
2018-12-24T03:48:41.816Z,18.83
2018-12-24T03:51:18.876Z,17.97
2018-12-24T03:53:51.981Z,11.50
2018-12-24T03:56:23.156Z,12.00
2018-12-24T03:58:54.248Z,8.33
2018-12-24T04:01:25.532Z,13.13
2018-12-24T04:03:56.656Z,11.83
2018-12-24T04:06:27.984Z,15.07
2018-12-24T04:09:00.601Z,13.53
2018-12-24T04:11:31.556Z,13.33
2018-12-24T04:25:08.427Z,18.17
2018-12-24T04:27:41.916Z,14.13
2018-12-24T04:30:11.402Z,13.47
2018-12-24T04:32:42.191Z,17.70
2018-12-24T04:35:12.767Z,16.93
2018-12-24T04:37:43.900Z,13.40
2018-12-24T04:40:14.596Z,11.07
2018-12-24T04:42:45.217Z,12.73
2018-12-24T04:45:51.622Z,14.77
2018-12-24T04:48:21.379Z,12.03
2018-12-24T04:50:52.368Z,12.83
2018-12-24T04:53:22.887Z,13.90
2018-12-24T04:55:53.636Z,10.70
2018-12-24T04:58:24.436Z,9.63
2018-12-24T05:00:55.216Z,13.90
2018-12-24T05:03:25.776Z,13.27
2018-12-24T05:05:56.757Z,12.67
2018-12-24T05:08:27.451Z,13.30
2018-12-24T05:10:58.006Z,10.60
2018-12-24T05:13:28.646Z,11.57
2018-12-24T05:15:59.262Z,11.90
2018-12-24T05:18:30.005Z,11.33
2018-12-24T05:21:00.736Z,8.50
2018-12-24T05:23:31.980Z,12.43
2018-12-24T05:26:02.580Z,11.27
2018-12-24T05:28:33.326Z,10.97
2018-12-24T05:31:03.977Z,12.87
2018-12-24T05:33:34.631Z,12.80
2018-12-24T05:36:05.187Z,12.57
2018-12-24T05:38:36.166Z,12.23
2018-12-24T05:41:06.971Z,14.00
2018-12-24T05:43:37.771Z,10.63
2018-12-24T05:46:08.736Z,10.57
2018-12-24T05:48:39.421Z,13.27
2018-12-24T05:51:10.122Z,12.30
2018-12-24T05:53:40.793Z,8.87
2018-12-24T05:56:11.607Z,10.83
2018-12-24T05:58:42.252Z,12.93
2018-12-24T06:01:13.028Z,14.13
2018-12-24T06:03:43.997Z,8.00
2018-12-24T06:06:14.887Z,11.90
2018-12-24T06:08:45.894Z,11.50
2018-12-24T06:11:16.686Z,11.10
2018-12-24T06:13:47.417Z,12.33
2018-12-24T06:16:18.281Z,9.90
2018-12-24T06:18:48.982Z,9.13
2018-12-24T06:21:19.717Z,8.03
2018-12-24T06:23:50.392Z,11.80
2018-12-24T06:26:21.212Z,11.73
2018-12-24T06:28:52.147Z,16.93
2018-12-24T06:31:22.952Z,12.73
2018-12-24T06:33:53.793Z,14.33
2018-12-24T06:36:24.651Z,13.63
2018-12-24T06:38:55.977Z,13.83
2018-12-24T06:41:26.782Z,13.53
2018-12-24T06:43:57.567Z,14.23
2018-12-24T06:46:28.482Z,13.83
2018-12-24T06:48:59.217Z,12.13
2018-12-24T06:51:30.013Z,12.30
2018-12-24T06:54:01.203Z,9.47
2018-12-24T07:10:05.034Z,26.20
2018-12-24T07:12:35.649Z,18.53
2018-12-24T07:15:06.232Z,18.03
2018-12-24T07:17:37.102Z,17.03
2018-12-24T07:20:07.772Z,15.73
2018-12-24T07:22:38.634Z,16.23
2018-12-24T07:25:09.582Z,17.10
2018-12-24T07:27:40.207Z,17.40
2018-12-24T07:30:10.882Z,17.43
2018-12-24T07:32:41.747Z,18.07
2018-12-24T07:35:12.382Z,11.70
2018-12-24T07:37:43.013Z,14.03
2018-12-24T07:40:13.951Z,12.80
2018-12-24T07:42:44.558Z,15.50
2018-12-24T07:45:15.248Z,12.37
2018-12-24T07:47:46.098Z,14.40
2018-12-24T07:50:16.807Z,16.10
2018-12-24T07:52:47.467Z,18.00
2018-12-24T07:55:18.452Z,16.93
2018-12-24T07:57:49.007Z,16.93
2018-12-24T08:00:19.647Z,10.20
2018-12-24T08:02:50.682Z,18.57
2018-12-24T08:05:21.387Z,18.23
2018-12-24T08:07:52.052Z,18.87
2018-12-24T08:10:22.867Z,16.93
2018-12-24T08:12:53.522Z,17.10
2018-12-24T08:15:24.097Z,18.37
2018-12-24T08:17:54.923Z,21.03
2018-12-24T08:20:25.502Z,20.43
2018-12-24T08:22:56.093Z,24.80
2018-12-24T08:25:26.852Z,22.40
2018-12-24T08:27:58.982Z,20.63
2018-12-24T08:30:29.567Z,23.47
2018-12-24T08:33:00.962Z,19.03
2018-12-24T08:35:31.612Z,14.97
2018-12-24T08:38:02.207Z,21.67
2018-12-24T08:40:32.892Z,23.90
2018-12-24T08:43:03.417Z,19.70
2018-12-24T08:45:33.971Z,23.97
2018-12-24T08:48:04.721Z,23.10
2018-12-24T08:50:35.346Z,23.27
2018-12-24T08:53:05.876Z,21.10
2018-12-24T08:55:36.553Z,23.40
2018-12-24T08:58:07.072Z,17.17
2018-12-24T09:00:37.572Z,19.30
2018-12-24T09:03:08.447Z,17.67
2018-12-24T09:05:39.173Z,22.70
2018-12-24T09:08:09.612Z,21.77
2018-12-24T09:10:40.188Z,23.57
2018-12-24T09:13:10.757Z,21.67
2018-12-24T09:15:41.437Z,21.00
2018-12-24T09:18:12.215Z,27.30
2018-12-24T09:20:42.968Z,22.90
2018-12-24T09:23:13.528Z,23.70
2018-12-24T09:25:44.277Z,19.47
2018-12-24T09:28:15.007Z,23.37
2018-12-24T09:30:50.990Z,22.53
2018-12-24T09:33:21.707Z,27.80
2018-12-24T09:35:53.635Z,22.90
2018-12-24T09:38:24.518Z,20.20
2018-12-24T09:40:55.123Z,24.97
2018-12-24T09:43:25.704Z,26.73
2018-12-24T09:45:56.563Z,20.00
2018-12-24T09:48:27.233Z,27.20
2018-12-24T09:51:08.898Z,36.57
2018-12-24T09:53:39.510Z,27.57
2018-12-24T09:56:12.432Z,27.37
2018-12-24T09:58:42.363Z,32.87
2018-12-24T10:01:12.946Z,27.43
2018-12-24T10:03:51.153Z,32.10
2018-12-24T10:06:26.156Z,24.63
2018-12-24T10:08:57.183Z,27.30
2018-12-24T10:11:27.803Z,22.43
2018-12-24T10:14:04.168Z,28.33
2018-12-24T10:16:34.804Z,33.53
2018-12-24T10:19:05.538Z,30.60
2018-12-24T10:21:36.513Z,19.93
2018-12-24T10:24:07.158Z,17.60
2018-12-24T10:26:38.009Z,20.90
2018-12-24T10:29:08.723Z,23.87
2018-12-24T10:31:39.318Z,23.60
2018-12-24T10:34:09.943Z,24.00
2018-12-24T10:36:40.743Z,32.37
2018-12-24T10:39:11.488Z,25.83
2018-12-24T10:41:42.013Z,31.27
2018-12-24T10:44:12.633Z,28.33
2018-12-24T10:46:43.263Z,29.40
2018-12-24T10:49:13.859Z,27.07
2018-12-24T10:51:44.388Z,25.13
2018-12-24T10:54:15.003Z,26.43
2018-12-24T10:56:45.532Z,27.73
2018-12-24T10:59:16.279Z,26.57
2018-12-24T11:01:46.858Z,27.27
2018-12-24T11:04:17.494Z,27.57
2018-12-24T11:06:48.183Z,26.53
2018-12-24T11:09:18.793Z,27.37
2018-12-24T11:11:49.857Z,26.83
2018-12-24T11:14:20.833Z,27.20
2018-12-24T11:16:51.409Z,25.00
2018-12-24T11:19:22.138Z,22.83
2018-12-24T11:21:52.738Z,22.53
2018-12-24T11:24:23.263Z,20.23
2018-12-24T11:26:54.033Z,22.30
2018-12-24T11:29:24.772Z,29.60
2018-12-24T11:31:55.525Z,21.50
2018-12-24T11:34:26.182Z,20.93
2018-12-24T11:36:56.782Z,24.17
2018-12-24T11:39:27.437Z,23.57
2018-12-24T11:41:57.967Z,23.17
2018-12-24T11:44:28.783Z,22.47
2018-12-24T11:46:59.702Z,26.63
2018-12-24T11:49:32.639Z,26.50
2018-12-24T11:52:02.687Z,21.00
2018-12-24T11:54:33.382Z,19.53
2018-12-24T11:57:04.070Z,24.03
2018-12-24T11:59:34.603Z,19.87
2018-12-24T12:02:09.939Z,21.93
2018-12-24T12:04:37.418Z,21.37
2018-12-24T12:07:08.298Z,20.67
2018-12-24T12:09:38.843Z,21.63
2018-12-24T12:12:09.523Z,21.30
2018-12-24T12:14:40.562Z,20.27
2018-12-24T12:17:11.177Z,19.97
2018-12-24T12:19:41.737Z,21.03
2018-12-24T12:22:12.602Z,21.63
2018-12-24T12:24:43.042Z,22.70
2018-12-24T12:27:13.762Z,21.97
2018-12-24T12:29:44.423Z,22.77
2018-12-24T12:32:15.067Z,24.87
2018-12-24T12:34:45.624Z,23.37
2018-12-24T12:37:16.237Z,24.37
2018-12-24T12:39:46.798Z,25.33
2018-12-24T12:42:17.793Z,25.00
2018-12-24T12:44:48.728Z,25.63
2018-12-24T12:47:19.372Z,25.60
2018-12-24T12:49:50.063Z,25.93
2018-12-24T12:52:20.657Z,25.77
2018-12-24T12:54:51.309Z,28.33
2018-12-24T12:57:21.938Z,27.67
2018-12-24T12:59:52.538Z,26.73
2018-12-24T13:02:23.194Z,26.90
2018-12-24T13:04:53.793Z,27.07
2018-12-24T13:07:24.653Z,25.47
2018-12-24T13:09:55.128Z,26.13
2018-12-24T13:12:26.105Z,26.27
2018-12-24T13:14:57.383Z,25.50
2018-12-24T13:17:28.023Z,25.10
2018-12-24T13:19:58.718Z,24.40
2018-12-24T13:22:29.523Z,24.80
2018-12-24T13:25:00.115Z,24.30
2018-12-24T13:27:30.803Z,25.83
2018-12-24T13:30:01.493Z,24.67
2018-12-24T13:32:32.307Z,25.63
2018-12-24T13:35:03.183Z,25.77
2018-12-24T13:37:34.073Z,20.83
2018-12-24T13:40:04.808Z,22.30
2018-12-24T13:42:35.415Z,21.57
2018-12-24T13:45:06.920Z,14.90
2018-12-24T13:47:37.727Z,9.80
2018-12-24T13:50:08.772Z,1.73
2018-12-24T13:52:39.652Z,8.43
2018-12-24T13:55:10.307Z,16.70
2018-12-24T13:57:40.928Z,19.43
2018-12-24T14:00:11.897Z,20.73
2018-12-24T14:02:42.578Z,20.37
2018-12-24T14:05:13.468Z,19.67
2018-12-24T14:07:44.378Z,19.47
2018-12-24T14:10:15.258Z,20.17
2018-12-24T14:12:46.013Z,19.60
2018-12-24T14:15:16.638Z,21.13
2018-12-24T14:17:47.338Z,20.63
2018-12-24T14:20:17.965Z,20.13
2018-12-24T14:22:48.823Z,20.90
2018-12-24T14:25:19.429Z,22.23
2018-12-24T14:27:50.222Z,21.83
2018-12-24T14:30:20.958Z,23.50
2018-12-24T14:32:51.599Z,23.57
2018-12-24T14:35:22.303Z,23.23
2018-12-24T14:37:52.918Z,25.43
2018-12-24T14:40:23.953Z,25.70
2018-12-24T14:42:54.563Z,23.63
2018-12-24T14:45:25.338Z,25.20
2018-12-24T14:47:56.233Z,24.00
2018-12-24T14:50:27.113Z,24.67
2018-12-24T14:52:58.023Z,23.70
2018-12-24T14:55:28.628Z,24.20
2018-12-24T14:57:59.223Z,25.27
2018-12-24T15:00:29.864Z,23.37
2018-12-24T15:03:00.524Z,24.50
2018-12-24T15:05:31.193Z,25.40
2018-12-24T15:08:05.468Z,25.17
2018-12-24T15:14:17.114Z,26.13
2018-12-24T15:16:47.853Z,25.93
2018-12-24T15:19:18.773Z,27.20
2018-12-24T15:21:49.492Z,25.40
2018-12-24T15:24:20.323Z,24.77
2018-12-24T15:26:50.948Z,25.93
2018-12-24T15:29:21.759Z,41.93
2018-12-24T15:31:52.349Z,28.37
2018-12-24T15:34:23.039Z,26.70
2018-12-24T15:36:53.773Z,26.57
2018-12-24T15:39:24.388Z,24.43
2018-12-24T15:41:55.038Z,28.80
2018-12-24T15:44:25.919Z,30.47
2018-12-24T15:46:56.618Z,27.73
2018-12-24T15:49:27.293Z,27.30
2018-12-24T15:51:58.163Z,30.13
2018-12-24T15:54:28.743Z,36.80
2018-12-24T15:56:59.353Z,30.87
2018-12-24T15:59:30.048Z,32.27
2018-12-24T16:02:00.973Z,31.40
2018-12-24T16:04:31.548Z,31.17
2018-12-24T16:07:02.298Z,29.73
2018-12-24T16:09:32.866Z,31.97
2018-12-24T16:12:03.564Z,38.30
2018-12-24T16:14:34.263Z,38.63
2018-12-24T16:17:04.858Z,35.90
2018-12-24T16:19:35.573Z,33.77
2018-12-24T16:22:07.053Z,32.00
2018-12-24T16:24:37.814Z,31.70
2018-12-24T16:27:08.603Z,32.57
2018-12-24T16:29:39.448Z,40.93
2018-12-24T16:32:10.043Z,29.17
2018-12-24T16:34:40.625Z,33.77
2018-12-24T16:37:11.323Z,44.70
2018-12-24T16:39:41.853Z,33.47
2018-12-24T16:42:12.433Z,29.07
2018-12-24T16:44:43.228Z,27.83
2018-12-24T16:47:13.759Z,27.67
2018-12-24T16:49:44.343Z,38.27
2018-12-24T16:52:15.098Z,39.40
2018-12-24T16:54:45.835Z,35.20
2018-12-24T16:57:16.507Z,31.00
2018-12-24T16:59:48.148Z,35.07
2018-12-24T17:02:18.793Z,37.73
2018-12-24T17:04:49.348Z,39.73
2018-12-24T17:07:20.218Z,31.90
2018-12-24T17:09:50.958Z,30.07
2018-12-24T17:12:21.568Z,28.97
2018-12-24T17:14:52.329Z,28.77
2018-12-24T17:17:22.983Z,27.23
2018-12-24T17:19:53.702Z,29.53
2018-12-24T17:22:24.478Z,42.53
2018-12-24T17:24:55.073Z,58.33
2018-12-24T17:27:25.539Z,34.43
2018-12-24T17:29:56.303Z,36.40
2018-12-24T17:32:27.018Z,29.47
2018-12-24T17:34:57.688Z,26.23
2018-12-24T17:37:28.463Z,31.70
2018-12-24T17:39:59.323Z,23.00
2018-12-24T17:42:29.963Z,23.57
2018-12-24T17:45:00.568Z,24.43
2018-12-24T17:47:31.182Z,37.10
2018-12-24T17:50:02.222Z,52.20
2018-12-24T17:52:33.013Z,47.00
2018-12-24T17:55:03.595Z,31.27
2018-12-24T17:57:34.068Z,33.53
2018-12-24T18:00:05.074Z,34.10
2018-12-24T18:02:35.800Z,34.63
2018-12-24T18:05:06.518Z,35.27
2018-12-24T18:07:37.143Z,41.70
2018-12-24T18:10:08.030Z,36.83
2018-12-24T18:12:38.598Z,45.63
2018-12-24T18:15:09.699Z,33.83
2018-12-24T18:17:40.224Z,43.70
2018-12-24T18:20:10.873Z,34.07
2018-12-24T18:22:42.168Z,31.73
2018-12-24T18:25:13.113Z,26.03
2018-12-24T18:27:43.658Z,24.73
2018-12-24T18:30:14.607Z,24.93
2018-12-24T18:32:45.248Z,28.17
2018-12-24T18:35:15.778Z,27.87
2018-12-24T18:37:46.823Z,35.83
2018-12-24T18:40:17.363Z,32.07
2018-12-24T18:42:48.038Z,35.20
2018-12-24T18:45:18.683Z,39.83
2018-12-24T18:47:49.303Z,36.37
2018-12-24T18:50:19.978Z,40.23
2018-12-24T18:52:50.657Z,38.70
2018-12-24T18:55:21.434Z,28.50
2018-12-24T18:57:52.247Z,46.97
2018-12-24T19:00:23.037Z,27.93
2018-12-24T19:02:53.675Z,22.00
2018-12-24T19:05:24.995Z,26.90
2018-12-24T19:07:55.590Z,26.37
2018-12-24T19:10:26.317Z,27.00
2018-12-24T19:12:56.942Z,23.67
2018-12-24T19:15:27.627Z,24.57
2018-12-24T19:17:58.397Z,24.00
2018-12-24T19:20:29.157Z,24.43
2018-12-24T19:22:59.846Z,19.83
2018-12-24T19:25:30.441Z,22.83
2018-12-24T19:28:01.002Z,25.43
2018-12-24T19:30:31.572Z,23.53
2018-12-24T19:33:02.343Z,26.00
2018-12-24T19:35:32.962Z,24.37
2018-12-24T19:38:03.802Z,27.37
2018-12-24T19:40:34.268Z,31.23
2018-12-24T19:43:04.822Z,26.70
2018-12-24T19:45:35.582Z,23.67
2018-12-24T19:48:06.357Z,25.53
2018-12-24T19:50:36.884Z,23.97
2018-12-24T19:53:07.722Z,25.23
2018-12-24T19:55:38.182Z,23.23
2018-12-24T19:58:08.963Z,24.80
2018-12-24T20:00:39.508Z,24.63
2018-12-24T20:03:10.077Z,24.30
2018-12-24T20:05:40.738Z,24.60
2018-12-24T20:08:11.590Z,25.20
2018-12-24T20:10:42.203Z,23.33
2018-12-24T20:13:12.742Z,24.47
2018-12-24T20:15:43.383Z,23.17
2018-12-24T20:18:13.979Z,23.87
2018-12-24T20:20:44.443Z,24.37
2018-12-24T20:23:15.363Z,21.03
2018-12-24T20:25:45.898Z,20.17
2018-12-24T20:28:17.463Z,20.50
2018-12-24T20:30:48.258Z,19.20
2018-12-24T20:33:18.803Z,20.30
2018-12-24T20:35:49.325Z,19.80
2018-12-24T20:38:20.198Z,19.87
2018-12-24T20:40:50.709Z,17.73
2018-12-24T20:43:21.533Z,17.03
2018-12-24T20:45:52.513Z,18.17
2018-12-24T20:48:23.023Z,16.80
2018-12-24T20:50:53.734Z,17.37
2018-12-24T20:53:24.463Z,18.03
2018-12-24T20:55:55.038Z,18.37
2018-12-24T20:58:25.938Z,17.17
2018-12-24T21:00:56.618Z,16.70
2018-12-24T21:03:27.219Z,16.40
2018-12-24T21:05:58.118Z,15.50
2018-12-24T21:08:29.100Z,15.83
2018-12-24T21:10:59.708Z,16.50
2018-12-24T21:13:30.333Z,21.67
2018-12-24T21:16:00.998Z,23.47
2018-12-24T21:18:31.898Z,24.87
2018-12-24T21:21:03.004Z,23.80
2018-12-24T21:23:35.228Z,18.93
2018-12-24T21:26:05.794Z,17.20
2018-12-24T21:28:36.438Z,17.07
2018-12-24T21:31:07.164Z,18.50
2018-12-24T21:33:37.718Z,20.47
2018-12-24T21:36:08.243Z,19.13
2018-12-24T21:38:38.904Z,18.47
2018-12-24T21:41:09.424Z,22.67
2018-12-24T21:43:39.938Z,18.90
2018-12-24T21:46:10.733Z,19.40
2018-12-24T21:48:41.328Z,18.20
2018-12-24T21:51:11.934Z,15.10
2018-12-24T21:53:42.733Z,16.23
2018-12-24T21:56:13.153Z,13.77
2018-12-24T21:58:43.879Z,14.37
2018-12-24T22:01:14.568Z,13.43
2018-12-24T22:03:45.114Z,12.90
2018-12-24T22:06:15.669Z,14.17
2018-12-24T22:08:46.608Z,13.13
2018-12-24T22:11:17.238Z,12.97
2018-12-24T22:13:47.828Z,11.50
2018-12-24T22:16:18.378Z,12.50
2018-12-24T22:18:48.912Z,12.07
2018-12-24T22:21:19.838Z,13.20
2018-12-24T22:23:51.063Z,13.10
2018-12-24T22:26:21.823Z,13.47
2018-12-24T22:28:52.393Z,16.73
2018-12-24T22:31:22.983Z,18.33
2018-12-24T22:33:53.623Z,22.90
2018-12-24T22:36:24.343Z,23.13
2018-12-24T22:38:55.413Z,21.23
2018-12-24T22:41:26.057Z,21.30
2018-12-24T22:43:56.753Z,20.50
2018-12-24T22:46:27.953Z,19.37
2018-12-24T22:48:58.893Z,20.40
2018-12-24T22:51:30.268Z,15.67
2018-12-24T22:54:01.458Z,18.40
2018-12-24T22:56:32.408Z,24.07
2018-12-24T22:59:03.163Z,21.90
2018-12-24T23:01:34.147Z,21.73
2018-12-24T23:04:04.747Z,25.87
2018-12-24T23:06:35.437Z,23.70
2018-12-24T23:09:09.110Z,19.33
2018-12-24T23:11:40.052Z,18.07
2018-12-24T23:14:11.015Z,15.77
2018-12-24T23:16:41.872Z,14.47
2018-12-24T23:19:13.158Z,15.80
2018-12-24T23:21:44.353Z,12.57
2018-12-24T23:24:15.160Z,13.57
2018-12-24T23:26:45.938Z,15.07
2018-12-24T23:29:16.847Z,15.27
2018-12-24T23:31:47.818Z,14.40
2018-12-24T23:34:18.342Z,14.40
2018-12-24T23:36:48.932Z,14.07
2018-12-24T23:39:19.798Z,12.67
2018-12-24T23:41:50.383Z,13.47
2018-12-24T23:44:21.068Z,14.43
2018-12-24T23:46:51.663Z,14.83
2018-12-24T23:49:22.303Z,14.70
2018-12-24T23:51:52.883Z,15.90
2018-12-24T23:54:24.338Z,16.33
2018-12-24T23:56:54.963Z,16.23
2018-12-24T23:59:25.544Z,16.53
